Time;durP1;ratioP1;P1;durP2;ratioP2;P2;SDS_P1;SDS_P2;PMS_P1;PMS_P2;Temp;Humidity;BMP_temperature;BMP_pressure;BME280_temperature;BME280_humidity;BME280_pressure;Samples;Min_cycle;Max_cycle;Signal;HPM_P1;HPM_P2
2023/09/20 00:01:14;;;;;;;3.47;2.00;;;14.40;99.90;;;;;;4897838;29;20581;-69
2023/09/20 00:03:46;;;;;;;3.97;1.88;;;14.40;99.90;;;;;;4885972;29;20052;-69
2023/09/20 00:06:13;;;;;;;4.68;2.30;;;14.40;99.90;;;;;;4905061;29;20052;-69
2023/09/20 00:08:45;;;;;;;3.08;2.10;;;14.40;99.90;;;;;;4887545;29;20573;-69
2023/09/20 00:11:18;;;;;;;3.42;2.53;;;14.40;99.90;;;;;;4888165;29;20045;-69
2023/09/20 00:13:46;;;;;;;2.97;2.30;;;14.40;99.90;;;;;;4901690;29;20045;-69
2023/09/20 00:16:13;;;;;;;3.97;2.08;;;14.30;99.90;;;;;;4891774;29;20041;-69
2023/09/20 00:18:40;;;;;;;2.30;1.98;;;14.40;99.90;;;;;;4907719;29;20044;-69
2023/09/20 00:21:11;;;;;;;2.47;2.10;;;14.30;99.90;;;;;;4880693;29;20069;-69
2023/09/20 00:23:43;;;;;;;4.82;2.13;;;14.30;99.90;;;;;;4894637;29;20056;-69
2023/09/20 00:26:10;;;;;;;3.25;2.17;;;14.30;99.90;;;;;;4894162;29;20051;-68
2023/09/20 00:28:48;;;;;;;3.42;2.10;;;14.30;99.90;;;;;;4886008;29;20048;-69
2023/09/20 00:31:21;;;;;;;3.42;2.40;;;14.30;99.90;;;;;;4888742;29;20051;-69
2023/09/20 00:33:54;;;;;;;3.80;2.38;;;14.20;99.90;;;;;;4891645;29;20048;-68
2023/09/20 00:36:27;;;;;;;2.92;2.03;;;14.30;99.90;;;;;;4884910;29;20096;-69
2023/09/20 00:39:00;;;;;;;4.28;2.15;;;14.30;99.90;;;;;;4900140;29;20068;-69
2023/09/20 00:41:32;;;;;;;;;;;14.20;99.90;;;;;;4888555;29;20052;-69
2023/09/20 00:44:00;;;;;;;5.13;2.65;;;14.20;99.90;;;;;;4902255;29;19923;-69
2023/09/20 00:46:32;;;;;;;3.43;2.00;;;14.10;99.90;;;;;;4898020;29;20045;-69
2023/09/20 00:48:59;;;;;;;2.60;2.13;;;14.20;99.90;;;;;;4902232;29;20297;-69
2023/09/20 00:51:27;;;;;;;3.80;2.17;;;14.20;99.90;;;;;;4881703;29;20047;-69
2023/09/20 00:54:03;;;;;;;2.75;2.05;;;14.10;99.90;;;;;;4891721;29;20458;-68
2023/09/20 00:56:35;;;;;;;3.33;2.10;;;14.10;99.90;;;;;;4890696;29;20510;-68
2023/09/20 00:59:09;;;;;;;3.80;2.00;;;14.10;99.90;;;;;;4893956;29;20049;-69
2023/09/20 01:01:41;;;;;;;3.90;3.38;;;14.10;99.90;;;;;;4897580;29;20546;-68
2023/09/20 01:04:14;;;;;;;4.57;3.10;;;14.00;99.90;;;;;;4888661;29;20052;-69
2023/09/20 01:06:41;;;;;;;6.10;4.05;;;14.00;99.90;;;;;;4892101;29;20049;-69
2023/09/20 01:09:14;;;;;;;5.10;3.67;;;13.90;99.90;;;;;;4892021;29;20048;-69
2023/09/20 01:11:42;;;;;;;4.72;3.78;;;13.90;99.90;;;;;;4871197;29;20650;-69
2023/09/20 01:14:14;;;;;;;3.72;3.28;;;13.80;99.90;;;;;;4892264;29;20055;-69
2023/09/20 01:16:46;;;;;;;4.75;3.15;;;13.80;99.90;;;;;;4873242;29;20045;-69
2023/09/20 01:19:18;;;;;;;4.00;3.25;;;13.80;99.90;;;;;;4897635;29;20045;-69
2023/09/20 01:21:50;;;;;;;3.45;3.00;;;13.80;99.90;;;;;;4896160;29;20148;-69
2023/09/20 01:24:20;;;;;;;2.88;2.33;;;13.80;99.90;;;;;;4894364;29;20462;-68
2023/09/20 01:26:57;;;;;;;2.97;2.22;;;13.70;99.90;;;;;;4873480;29;20048;-68
2023/09/20 01:29:29;;;;;;;3.08;2.08;;;13.70;99.90;;;;;;4893296;29;20124;-68
2023/09/20 01:32:02;;;;;;;2.47;1.80;;;13.70;99.90;;;;;;4894764;29;20049;-69
2023/09/20 01:34:34;;;;;;;3.05;2.58;;;13.70;99.90;;;;;;4897823;29;20399;-69
2023/09/20 01:37:07;;;;;;;3.25;2.33;;;13.70;99.90;;;;;;4897439;29;20044;-68
2023/09/20 01:39:35;;;;;;;3.50;2.85;;;13.70;99.90;;;;;;4904665;29;20067;-69
2023/09/20 01:42:04;;;;;;;5.43;3.25;;;13.70;99.90;;;;;;4885781;29;20053;-69
2023/09/20 01:44:37;;;;;;;3.83;3.40;;;13.60;99.90;;;;;;4901619;29;20053;-69
2023/09/20 01:47:09;;;;;;;4.68;2.92;;;13.50;99.90;;;;;;4898246;29;20060;-69
2023/09/20 01:49:42;;;;;;;3.88;2.97;;;13.50;99.90;;;;;;4883194;29;20072;-69
2023/09/20 01:52:15;;;;;;;3.13;2.83;;;13.40;99.90;;;;;;4891194;29;20472;-69
2023/09/20 01:54:47;;;;;;;3.35;2.72;;;13.40;99.90;;;;;;4891204;29;20049;-69
2023/09/20 01:57:18;;;;;;;3.33;2.65;;;13.40;99.90;;;;;;4890204;29;20076;-69
2023/09/20 01:59:51;;;;;;;2.20;2.00;;;13.40;99.90;;;;;;4895543;29;20072;-69
2023/09/20 02:02:18;;;;;;;3.38;2.05;;;13.40;99.90;;;;;;4892818;29;20050;-68
2023/09/20 02:04:45;;;;;;;2.47;2.08;;;13.40;99.90;;;;;;4901667;29;20071;-68
2023/09/20 02:07:21;;;;;;;4.85;1.85;;;13.40;99.90;;;;;;4890046;29;20049;-69
2023/09/20 02:09:53;;;;;;;1.92;1.73;;;13.40;99.90;;;;;;4873231;29;20071;-69
2023/09/20 02:12:25;;;;;;;3.38;1.42;;;13.40;99.90;;;;;;4901965;29;20045;-69
2023/09/20 02:14:53;;;;;;;1.92;1.65;;;13.40;99.90;;;;;;4871360;29;20053;-68
2023/09/20 02:17:20;;;;;;;2.38;1.63;;;13.40;99.90;;;;;;4882824;29;20463;-69
2023/09/20 02:19:54;;;;;;;4.13;2.00;;;13.40;99.90;;;;;;4897138;29;20105;-69
2023/09/20 02:22:28;;;;;;;2.88;1.80;;;13.40;99.90;;;;;;4889891;29;20128;-69
2023/09/20 02:24:59;;;;;;;2.25;1.58;;;13.40;99.90;;;;;;4886203;29;20057;-69
2023/09/20 02:27:34;;;;;;;2.85;1.65;;;13.40;99.90;;;;;;4892904;29;20510;-69
2023/09/20 02:30:09;;;;;;;5.20;1.85;;;13.40;99.90;;;;;;4894107;29;20535;-69
2023/09/20 02:32:44;;;;;;;5.18;2.58;;;13.30;99.90;;;;;;4874551;29;20037;-69
2023/09/20 02:35:11;;;;;;;2.42;2.00;;;13.30;99.90;;;;;;4894360;29;20041;-69
2023/09/20 02:37:43;;;;;;;3.00;2.33;;;13.20;99.90;;;;;;4896994;29;20138;-68
2023/09/20 02:40:18;;;;;;;2.20;1.95;;;13.20;99.90;;;;;;4882656;29;20049;-69
2023/09/20 02:43:03;;;;;;;4.07;2.67;;;13.20;99.90;;;;;;4883220;29;20513;-69
2023/09/20 02:45:34;;;;;;;2.15;1.95;;;13.30;99.90;;;;;;4898666;29;20053;-69
2023/09/20 02:48:06;;;;;;;2.55;2.03;;;13.20;99.90;;;;;;4900599;29;20589;-69
2023/09/20 02:50:41;;;;;;;4.30;2.70;;;13.20;99.90;;;;;;4897219;29;20065;-69
2023/09/20 02:53:14;;;;;;;4.13;2.13;;;13.20;99.90;;;;;;4883029;29;20048;-69
2023/09/20 02:55:41;;;;;;;5.22;3.08;;;13.30;99.90;;;;;;4891509;29;20383;-69
2023/09/20 02:58:13;;;;;;;3.37;2.63;;;13.20;99.90;;;;;;4877775;29;20072;-69
2023/09/20 03:00:46;;;;;;;2.72;2.05;;;13.20;99.90;;;;;;4879459;29;20041;-69
2023/09/20 03:03:23;;;;;;;2.40;2.15;;;13.20;99.90;;;;;;4898608;29;20068;-69
2023/09/20 03:05:56;;;;;;;2.60;2.40;;;13.10;99.90;;;;;;4894851;29;20045;-69
2023/09/20 03:08:29;;;;;;;2.58;2.30;;;13.10;99.90;;;;;;4895172;29;20053;-69
2023/09/20 03:10:56;;;;;;;4.20;2.70;;;13.10;99.90;;;;;;4896928;29;20037;-69
2023/09/20 03:13:28;;;;;;;2.78;2.50;;;13.10;99.90;;;;;;4897826;29;20064;-69
2023/09/20 03:15:55;;;;;;;4.32;2.80;;;13.10;99.90;;;;;;4899451;29;20143;-69
2023/09/20 03:18:27;;;;;;;3.35;2.97;;;13.10;99.90;;;;;;4897855;29;20056;-69
2023/09/20 03:21:05;;;;;;;7.03;3.05;;;13.00;99.90;;;;;;4881527;29;20510;-69
2023/09/20 03:23:38;;;;;;;7.32;2.63;;;12.90;99.90;;;;;;4886502;29;20123;-69
2023/09/20 03:26:10;;;;;;;9.30;3.03;;;12.90;99.90;;;;;;4905452;29;20514;-69
2023/09/20 03:28:43;;;;;;;6.15;4.22;;;12.80;99.90;;;;;;4870663;29;20049;-69
2023/09/20 03:31:16;;;;;;;;;;;12.80;99.90;;;;;;4871781;29;20057;-69
2023/09/20 03:33:49;;;;;;;3.35;2.92;;;12.70;99.90;;;;;;4896946;29;19924;-69
2023/09/20 03:36:20;;;;;;;5.35;4.03;;;12.80;99.90;;;;;;4898251;29;20184;-69
2023/09/20 03:38:55;;;;;;;7.30;3.92;;;12.70;99.90;;;;;;4882426;29;20540;-68
2023/09/20 03:41:27;;;;;;;3.92;2.88;;;12.60;99.90;;;;;;4903853;29;20077;-69
2023/09/20 03:43:59;;;;;;;5.45;2.72;;;12.60;99.90;;;;;;4890103;29;20049;-68
2023/09/20 03:46:32;;;;;;;6.07;3.58;;;12.50;99.90;;;;;;4904202;29;20044;-69
2023/09/20 03:49:04;;;;;;;7.03;2.45;;;12.50;99.90;;;;;;4904060;29;20520;-69
2023/09/20 03:51:36;;;;;;;3.63;2.30;;;12.50;99.90;;;;;;4871877;29;20144;-69
2023/09/20 03:54:08;;;;;;;5.22;2.60;;;12.50;99.90;;;;;;4891219;29;20057;-68
2023/09/20 03:56:37;;;;;;;3.38;2.70;;;12.40;99.90;;;;;;4898922;29;20414;-69
2023/09/20 03:59:12;;;;;;;4.47;2.72;;;12.40;99.90;;;;;;4873237;29;20698;-69
2023/09/20 04:01:39;;;;;;;5.18;2.60;;;12.40;99.90;;;;;;4887994;29;20127;-68
2023/09/20 04:04:11;;;;;;;4.13;2.58;;;12.40;99.90;;;;;;4896917;29;20120;-68
2023/09/20 04:06:47;;;;;;;3.42;2.42;;;12.40;99.90;;;;;;4891378;29;20048;-68
2023/09/20 04:09:13;;;;;;;4.18;2.50;;;12.50;99.90;;;;;;4903787;29;20471;-67
2023/09/20 04:11:45;;;;;;;2.70;2.10;;;12.40;99.90;;;;;;4898506;29;20601;-68
2023/09/20 04:14:17;;;;;;;6.65;2.38;;;12.40;99.90;;;;;;4871675;29;20049;-68
2023/09/20 04:16:49;;;;;;;3.13;2.25;;;12.40;99.90;;;;;;4901661;29;20525;-67
2023/09/20 04:19:21;;;;;;;3.38;2.03;;;12.40;99.90;;;;;;4886276;29;20051;-67
2023/09/20 04:21:49;;;;;;;2.13;1.77;;;12.30;99.90;;;;;;4900230;29;20622;-68
2023/09/20 04:24:22;;;;;;;2.63;1.92;;;12.30;99.90;;;;;;4898560;29;20044;-68
2023/09/20 04:26:49;;;;;;;2.25;1.80;;;12.30;99.90;;;;;;4898349;29;20044;-68
2023/09/20 04:29:17;;;;;;;2.55;1.67;;;12.20;99.90;;;;;;4891088;29;20040;-68
2023/09/20 04:31:45;;;;;;;2.17;1.90;;;12.20;99.90;;;;;;4875130;29;20083;-66
2023/09/20 04:34:19;;;;;;;2.47;1.90;;;12.20;99.90;;;;;;4905324;29;20032;-68
2023/09/20 04:36:52;;;;;;;6.10;2.25;;;12.20;99.90;;;;;;4878040;29;20097;-66
2023/09/20 04:39:24;;;;;;;5.05;2.25;;;12.20;99.90;;;;;;4892822;29;20128;-68
2023/09/20 04:41:56;;;;;;;3.03;2.20;;;12.20;99.90;;;;;;4904437;29;20056;-68
2023/09/20 04:44:28;;;;;;;3.78;2.38;;;12.30;99.90;;;;;;4906744;29;20052;-67
2023/09/20 04:47:00;;;;;;;3.38;2.22;;;12.30;99.90;;;;;;4890030;29;20135;-68
2023/09/20 04:49:26;;;;;;;6.18;2.45;;;12.30;99.90;;;;;;4888336;29;20120;-68
2023/09/20 04:52:00;;;;;;;5.55;2.30;;;12.30;99.90;;;;;;4908537;29;20040;-68
2023/09/20 04:54:33;;;;;;;;;;;12.30;99.90;;;;;;4906022;29;20096;-68
2023/09/20 04:57:01;;;;;;;3.00;2.17;;;12.30;99.90;;;;;;4888358;29;19923;-68
2023/09/20 04:59:29;;;;;;;2.03;1.77;;;12.30;99.90;;;;;;4906620;29;20036;-68
2023/09/20 05:02:02;;;;;;;7.72;2.83;;;12.30;99.90;;;;;;4900353;29;20048;-68
2023/09/20 05:04:36;;;;;;;8.70;2.83;;;12.30;99.90;;;;;;4897740;29;20108;-68
2023/09/20 05:07:09;;;;;;;7.07;2.15;;;12.30;99.90;;;;;;4896409;29;20052;-68
2023/09/20 05:09:42;;;;;;;6.20;2.28;;;12.30;99.90;;;;;;4877387;29;20049;-68
2023/09/20 05:12:09;;;;;;;4.80;2.20;;;12.30;99.90;;;;;;4893851;29;20498;-68
2023/09/20 05:14:42;;;;;;;2.92;2.65;;;12.30;99.90;;;;;;4898396;29;20506;-68
2023/09/20 05:17:09;;;;;;;4.20;2.70;;;12.30;99.90;;;;;;4900275;29;20113;-68
2023/09/20 05:19:41;;;;;;;5.40;2.97;;;12.30;99.90;;;;;;4901171;29;20128;-66
2023/09/20 05:22:13;;;;;;;2.80;2.50;;;12.30;99.90;;;;;;4885242;29;20101;-68
2023/09/20 05:24:45;;;;;;;2.60;2.40;;;12.40;99.90;;;;;;4899989;29;20052;-68
2023/09/20 05:27:17;;;;;;;3.97;2.38;;;12.40;99.90;;;;;;4912515;29;20595;-67
2023/09/20 05:29:53;;;;;;;3.35;2.67;;;12.40;99.90;;;;;;4895849;29;20044;-68
2023/09/20 05:32:25;;;;;;;6.80;2.90;;;12.40;99.90;;;;;;4907281;29;20059;-68
2023/09/20 05:34:52;;;;;;;2.50;2.30;;;12.50;99.90;;;;;;4907461;29;20052;-66
2023/09/20 05:37:23;;;;;;;6.55;2.33;;;12.50;99.90;;;;;;4892521;29;20119;-67
2023/09/20 05:39:56;;;;;;;3.22;2.30;;;12.50;99.90;;;;;;4885805;29;20103;-68
2023/09/20 05:42:28;;;;;;;12.27;4.80;;;12.50;99.90;;;;;;4914341;29;20044;-68
2023/09/20 05:45:00;;;;;;;6.82;3.03;;;12.50;99.90;;;;;;4894773;29;20053;-68
2023/09/20 05:47:32;;;;;;;12.55;4.22;;;12.40;99.90;;;;;;4893583;29;20036;-68
2023/09/20 05:50:06;;;;;;;7.07;3.30;;;12.30;99.90;;;;;;4880531;29;20067;-69
2023/09/20 05:52:43;;;;;;;10.88;3.15;;;12.10;99.90;;;;;;4906307;29;20068;-68
2023/09/20 05:55:15;;;;;;;3.25;2.45;;;11.90;99.90;;;;;;4895860;29;20033;-68
2023/09/20 05:57:43;;;;;;;4.55;2.60;;;11.80;99.90;;;;;;4896243;29;20811;-69
2023/09/20 06:00:16;;;;;;;3.25;2.65;;;11.80;99.90;;;;;;4907467;29;20033;-68
2023/09/20 06:02:51;;;;;;;3.05;2.60;;;11.70;99.90;;;;;;4890843;29;20052;-68
2023/09/20 06:05:26;;;;;;;4.40;2.78;;;11.80;99.90;;;;;;4875771;29;20040;-66
2023/09/20 06:07:58;;;;;;;6.68;3.22;;;11.80;99.90;;;;;;4898193;29;20675;-68
2023/09/20 06:10:30;;;;;;;9.23;3.30;;;11.80;99.90;;;;;;4890749;29;20040;-68
2023/09/20 06:13:05;;;;;;;6.93;2.97;;;11.90;99.90;;;;;;4907099;29;20386;-65
2023/09/20 06:15:37;;;;;;;3.47;2.50;;;12.00;99.90;;;;;;4906965;29;20076;-68
2023/09/20 06:18:09;;;;;;;5.60;2.63;;;12.20;99.90;;;;;;4895491;29;20044;-67
2023/09/20 06:20:50;;;;;;;4.78;3.15;;;12.20;99.90;;;;;;4894467;29;20036;-68
2023/09/20 06:23:25;;;;;;;8.40;2.90;;;12.30;99.90;;;;;;4892765;29;20036;-68
2023/09/20 06:26:06;;;;;;;3.45;3.15;;;12.40;99.90;;;;;;4891596;29;20059;-68
2023/09/20 06:28:33;;;;;;;4.78;2.83;;;12.50;99.90;;;;;;4889230;29;20049;-67
2023/09/20 06:31:05;;;;;;;3.85;3.42;;;12.50;99.90;;;;;;4899929;29;20056;-68
2023/09/20 06:33:32;;;;;;;5.50;4.03;;;12.50;99.90;;;;;;4886369;29;20041;-68
2023/09/20 06:35:59;;;;;;;6.68;3.95;;;12.60;99.90;;;;;;4889593;29;20854;-67
2023/09/20 06:38:34;;;;;;;5.28;4.07;;;12.60;99.90;;;;;;4880794;29;20101;-68
2023/09/20 06:41:06;;;;;;;4.38;3.20;;;12.70;99.90;;;;;;4892114;29;20041;-68
2023/09/20 06:43:37;;;;;;;4.70;3.58;;;12.80;99.90;;;;;;4876787;29;20049;-68
2023/09/20 06:46:10;;;;;;;6.25;3.92;;;12.90;99.90;;;;;;4885444;29;20049;-68
2023/09/20 06:48:41;;;;;;;3.65;3.35;;;13.00;99.90;;;;;;4883673;29;20044;-68
2023/09/20 06:51:13;;;;;;;5.05;3.58;;;13.00;99.90;;;;;;4888235;29;20053;-68
2023/09/20 06:53:46;;;;;;;4.55;3.30;;;13.10;99.90;;;;;;4886227;29;20041;-68
2023/09/20 06:56:13;;;;;;;4.00;3.60;;;13.20;99.90;;;;;;4887196;29;20151;-68
2023/09/20 06:58:47;;;;;;;4.03;2.47;;;13.30;99.90;;;;;;4880471;29;20052;-68
2023/09/20 07:01:14;;;;;;;4.68;4.00;;;13.50;99.90;;;;;;4890470;29;20055;-68
2023/09/20 07:03:46;;;;;;;4.15;3.58;;;13.60;99.90;;;;;;4892313;29;20052;-68
2023/09/20 07:06:18;;;;;;;6.30;3.88;;;13.60;99.90;;;;;;4882594;29;20041;-68
2023/09/20 07:08:50;;;;;;;9.15;3.97;;;13.70;99.90;;;;;;4887668;29;20044;-68
2023/09/20 07:11:17;;;;;;;7.38;4.07;;;13.70;99.90;;;;;;4895972;29;20139;-68
2023/09/20 07:13:49;;;;;;;6.77;3.97;;;13.80;99.90;;;;;;4893156;29;20399;-68
2023/09/20 07:16:21;;;;;;;3.97;3.20;;;13.80;99.90;;;;;;4897693;29;20153;-68
2023/09/20 07:18:54;;;;;;;6.20;3.88;;;13.90;99.90;;;;;;4887341;29;20053;-68
2023/09/20 07:21:27;;;;;;;5.18;3.95;;;13.90;99.90;;;;;;4888735;29;20048;-68
2023/09/20 07:23:59;;;;;;;4.68;4.07;;;14.00;99.90;;;;;;4871613;29;20060;-68
2023/09/20 07:26:32;;;;;;;3.80;3.50;;;14.00;99.90;;;;;;4890641;29;20040;-68
2023/09/20 07:29:05;;;;;;;4.80;4.28;;;14.10;99.90;;;;;;4887461;29;20439;-68
2023/09/20 07:31:37;;;;;;;5.40;3.93;;;14.10;99.90;;;;;;4883906;29;20044;-68
2023/09/20 07:34:13;;;;;;;4.38;3.97;;;14.20;99.90;;;;;;4891892;29;20304;-68
2023/09/20 07:36:49;;;;;;;4.72;4.22;;;14.30;99.90;;;;;;4894963;29;20040;-68
2023/09/20 07:39:21;;;;;;;7.15;5.22;;;14.50;99.90;;;;;;4878036;29;20199;-68
2023/09/20 07:41:53;;;;;;;7.03;3.75;;;14.50;99.90;;;;;;4908988;29;20060;-68
2023/09/20 07:44:30;;;;;;;4.18;3.30;;;14.70;99.90;;;;;;4881917;29;20053;-68
2023/09/20 07:47:04;;;;;;;5.80;3.33;;;14.80;99.90;;;;;;4892368;29;20044;-68
2023/09/20 07:49:35;;;;;;;5.47;3.55;;;14.90;99.90;;;;;;4892969;29;20550;-68
2023/09/20 07:52:09;;;;;;;4.15;3.75;;;15.00;99.90;;;;;;4888777;29;20064;-68
2023/09/20 07:54:36;;;;;;;4.40;3.88;;;15.20;99.90;;;;;;4901930;29;20108;-68
2023/09/20 07:57:10;;;;;;;5.13;4.60;;;15.30;99.90;;;;;;4890847;29;20128;-67
2023/09/20 07:59:37;;;;;;;4.78;3.83;;;15.40;99.90;;;;;;4886973;29;20562;-68
2023/09/20 08:02:09;;;;;;;4.28;3.70;;;15.50;99.90;;;;;;4883576;29;20047;-68
2023/09/20 08:04:41;;;;;;;5.43;3.00;;;15.60;99.90;;;;;;4888176;29;20425;-68
2023/09/20 08:07:13;;;;;;;7.90;4.07;;;15.80;99.90;;;;;;4883877;29;20052;-68
2023/09/20 08:09:40;;;;;;;4.20;3.55;;;15.90;99.90;;;;;;4896275;29;20059;-68
2023/09/20 08:12:12;;;;;;;4.75;3.78;;;16.10;99.90;;;;;;4890800;29;20048;-68
2023/09/20 08:14:43;;;;;;;3.28;2.90;;;16.20;99.90;;;;;;4894192;29;20053;-68
2023/09/20 08:20:03;;;;;;;4.55;3.30;;;16.30;99.90;;;;;;4887043;29;20537;-68
2023/09/20 09:02:22;;;;;;;3.92;3.00;;;18.40;99.90;;;;;;4889439;29;20577;-68
2023/09/20 09:04:54;;;;;;;3.45;2.90;;;18.50;99.90;;;;;;4880689;29;20045;-68
2023/09/20 09:07:26;;;;;;;5.37;3.43;;;18.70;99.90;;;;;;4892120;29;20522;-68
2023/09/20 09:09:58;;;;;;;5.90;2.92;;;18.80;99.90;;;;;;4885867;29;20284;-68
2023/09/20 09:12:30;;;;;;;3.40;2.60;;;19.00;99.90;;;;;;4870262;29;20044;-68
2023/09/20 09:15:02;;;;;;;4.65;2.40;;;19.10;99.90;;;;;;4864149;29;20047;-68
2023/09/20 09:17:37;;;;;;;2.70;2.30;;;19.20;99.90;;;;;;4889265;29;20041;-68
2023/09/20 09:20:11;;;;;;;3.15;2.60;;;19.30;99.90;;;;;;4886635;29;20123;-66
2023/09/20 09:22:47;;;;;;;3.20;2.28;;;19.40;99.90;;;;;;4889338;29;20045;-68
2023/09/20 09:25:30;;;;;;;2.67;1.80;;;19.60;99.90;;;;;;4885962;29;20041;-68
2023/09/20 09:28:03;;;;;;;2.85;1.65;;;19.70;99.90;;;;;;4888711;29;20041;-68
2023/09/20 09:30:31;;;;;;;2.90;1.70;;;19.80;99.90;;;;;;4885705;29;20045;-68
2023/09/20 09:33:04;;;;;;;3.55;1.60;;;19.90;99.90;;;;;;4881319;29;20834;-68
2023/09/20 09:35:33;;;;;;;3.83;2.00;;;20.00;99.90;;;;;;4890799;29;20036;-68
2023/09/20 09:38:05;;;;;;;2.55;1.75;;;20.10;99.90;;;;;;4890073;29;20417;-68
2023/09/20 09:40:53;;;;;;;2.13;1.42;;;20.20;99.90;;;;;;4885286;29;20135;-68
2023/09/20 09:43:27;;;;;;;3.72;2.83;;;20.30;99.90;;;;;;4884352;29;20076;-68
2023/09/20 09:46:08;;;;;;;3.92;1.30;;;20.40;99.90;;;;;;4871197;29;20140;-67
2023/09/20 09:48:42;;;;;;;2.83;2.30;;;20.50;99.90;;;;;;4891065;29;20053;-68
2023/09/20 09:51:16;;;;;;;1.95;1.48;;;20.60;99.90;;;;;;4887711;29;20143;-68
2023/09/20 09:53:49;;;;;;;3.47;1.63;;;20.70;99.90;;;;;;4891963;29;20048;-68
2023/09/20 09:56:21;;;;;;;1.85;1.60;;;20.80;99.90;;;;;;4902839;29;20041;-68
2023/09/20 09:58:54;;;;;;;2.78;1.50;;;20.90;99.90;;;;;;4888340;29;20044;-67
2023/09/20 10:01:28;;;;;;;2.53;1.42;;;21.00;99.90;;;;;;4891077;29;20060;-68
2023/09/20 10:04:05;;;;;;;3.42;1.80;;;21.10;99.90;;;;;;4886419;29;20048;-68
2023/09/20 10:07:01;;;;;;;2.08;1.38;;;21.20;99.90;;;;;;4896871;29;20080;-68
2023/09/20 10:09:34;;;;;;;1.63;1.33;;;21.20;99.90;;;;;;4881267;29;20159;-68
2023/09/20 10:12:08;;;;;;;2.20;1.70;;;21.30;99.90;;;;;;4879912;29;20682;-68
2023/09/20 10:14:40;;;;;;;3.65;1.45;;;21.40;99.90;;;;;;4880769;29;20037;-68
2023/09/20 10:17:20;;;;;;;2.83;1.40;;;21.50;99.90;;;;;;4884096;29;20429;-67
2023/09/20 10:19:53;;;;;;;2.08;1.27;;;21.60;99.90;;;;;;4887924;29;20056;-68
2023/09/20 10:22:23;;;;;;;3.00;1.60;;;21.70;99.90;;;;;;4888797;29;20040;-68
2023/09/20 10:24:58;;;;;;;4.88;1.65;;;21.80;99.90;;;;;;4900659;29;20049;-68
2023/09/20 10:27:34;;;;;;;1.90;1.50;;;21.90;99.90;;;;;;4883666;29;20049;-68
2023/09/20 10:30:10;;;;;;;2.72;1.60;;;21.90;99.90;;;;;;4888905;29;20045;-67
2023/09/20 10:32:48;;;;;;;3.45;1.50;;;21.90;99.90;;;;;;4883760;29;20049;-67
2023/09/20 10:35:32;;;;;;;3.40;1.50;;;21.90;99.90;;;;;;4889765;29;20040;-68
2023/09/20 10:38:08;;;;;;;1.92;1.45;;;21.90;99.90;;;;;;4902062;29;20166;-68
2023/09/20 10:41:07;;;;;;;3.28;1.33;;;22.00;99.90;;;;;;4882842;29;20033;-68
2023/09/20 10:43:40;;;;;;;2.45;1.40;;;22.00;99.90;;;;;;4870748;29;20526;-67
2023/09/20 10:46:18;;;;;;;1.77;1.40;;;22.10;99.90;;;;;;4885025;29;20060;-67
2023/09/20 10:48:52;;;;;;;3.20;2.20;;;22.20;99.90;;;;;;4887682;29;20045;-67
2023/09/20 10:51:52;;;;;;;3.75;1.95;;;22.20;99.90;;;;;;4892051;29;20516;-67
2023/09/20 10:54:26;;;;;;;2.13;1.88;;;22.30;99.90;;;;;;4887202;29;20039;-67
2023/09/20 10:57:06;;;;;;;2.80;1.80;;;22.40;99.90;;;;;;4884584;29;20053;-68
2023/09/20 10:59:34;;;;;;;1.95;1.40;;;22.50;99.90;;;;;;4890190;29;20044;-68
2023/09/20 11:02:08;;;;;;;6.60;1.38;;;22.40;99.90;;;;;;4891141;29;20041;-68
2023/09/20 11:04:40;;;;;;;3.55;1.88;;;22.60;99.90;;;;;;4882989;29;20052;-68
2023/09/20 11:07:14;;;;;;;3.67;1.48;;;22.70;99.90;;;;;;4865226;29;20051;-68
2023/09/20 11:09:47;;;;;;;3.10;1.90;;;22.80;99.90;;;;;;4904074;29;20074;-68
2023/09/20 11:12:20;;;;;;;2.03;1.25;;;22.80;99.90;;;;;;4891095;29;20055;-68
2023/09/20 11:14:51;;;;;;;3.75;1.80;;;22.90;99.90;;;;;;4882291;29;20036;-68
2023/09/20 11:17:23;;;;;;;3.22;1.60;;;22.90;99.90;;;;;;4879588;29;20049;-68
2023/09/20 11:19:58;;;;;;;3.28;1.63;;;23.00;99.90;;;;;;4890653;29;20040;-67
2023/09/20 11:22:30;;;;;;;2.28;1.65;;;23.10;99.90;;;;;;4895654;29;20540;-68
2023/09/20 11:24:57;;;;;;;2.47;1.55;;;23.20;99.90;;;;;;4902836;29;20044;-67
2023/09/20 11:27:30;;;;;;;3.53;1.50;;;23.30;99.90;;;;;;4883681;29;20605;-68
2023/09/20 11:30:08;;;;;;;1.38;1.27;;;23.30;99.90;;;;;;4885668;29;20536;-68
2023/09/20 11:32:40;;;;;;;2.08;1.40;;;23.30;99.90;;;;;;4884686;29;20560;-67
2023/09/20 11:35:32;;;;;;;3.67;1.45;;;23.50;99.90;;;;;;4896846;29;20055;-68
2023/09/20 11:38:05;;;;;;;1.70;1.40;;;23.60;99.90;;;;;;4888576;29;20523;-68
2023/09/20 11:40:41;;;;;;;2.30;1.40;;;23.70;99.90;;;;;;4884264;29;20033;-68
2023/09/20 11:43:20;;;;;;;2.40;1.52;;;23.70;99.90;;;;;;4879127;29;20156;-69
2023/09/20 11:45:53;;;;;;;3.53;1.30;;;23.80;99.90;;;;;;4878276;29;20067;-68
2023/09/20 11:48:27;;;;;;;1.92;1.30;;;23.90;99.90;;;;;;4885800;29;20043;-68
2023/09/20 11:51:01;;;;;;;1.95;1.40;;;23.80;99.90;;;;;;4889735;29;20033;-68
2023/09/20 11:53:33;;;;;;;2.25;1.60;;;23.90;99.90;;;;;;4906744;29;20588;-68
2023/09/20 11:56:05;;;;;;;2.10;1.47;;;24.00;99.90;;;;;;4883030;29;20129;-66
2023/09/20 11:58:38;;;;;;;3.92;1.25;;;24.10;99.90;;;;;;4884633;29;20455;-68
2023/09/20 12:01:10;;;;;;;2.13;1.27;;;24.10;99.90;;;;;;4887435;29;20529;-68
2023/09/20 12:03:42;;;;;;;2.40;1.60;;;24.10;99.90;;;;;;4885409;29;20045;-68
2023/09/20 12:06:13;;;;;;;2.55;1.27;;;24.20;99.90;;;;;;4887833;29;20041;-68
2023/09/20 12:08:45;;;;;;;1.98;1.60;;;24.20;99.90;;;;;;4886278;29;20056;-68
2023/09/20 12:11:17;;;;;;;2.90;1.25;;;24.30;99.90;;;;;;4888427;29;20045;-68
2023/09/20 12:13:45;;;;;;;2.80;1.20;;;24.40;99.90;;;;;;4891829;29;20048;-68
2023/09/20 12:16:14;;;;;;;2.28;1.23;;;24.50;99.90;;;;;;4893494;29;20036;-66
2023/09/20 12:18:46;;;;;;;2.72;1.23;;;24.60;99.90;;;;;;4888400;29;20067;-67
2023/09/20 12:21:18;;;;;;;1.80;1.40;;;24.70;99.90;;;;;;4897965;29;20058;-65
2023/09/20 12:23:51;;;;;;;2.67;1.45;;;24.70;99.90;;;;;;4898864;29;20059;-68
2023/09/20 12:26:24;;;;;;;1.70;1.40;;;24.70;99.90;;;;;;4907038;29;20040;-68
2023/09/20 12:28:56;;;;;;;4.93;1.33;;;24.70;99.90;;;;;;4897560;29;20080;-68
2023/09/20 12:31:28;;;;;;;12.88;1.70;;;24.90;99.90;;;;;;4898359;29;20055;-68
2023/09/20 12:33:56;;;;;;;2.90;1.00;;;24.90;99.90;;;;;;4893709;29;20075;-68
2023/09/20 12:36:24;;;;;;;2.05;1.50;;;25.00;99.90;;;;;;4896062;29;20055;-66
2023/09/20 12:38:50;;;;;;;1.75;1.40;;;24.90;99.90;;;;;;4900039;29;20064;-68
2023/09/20 12:41:19;;;;;;;3.50;1.20;;;24.90;99.90;;;;;;4891031;29;20048;-68
2023/09/20 12:43:46;;;;;;;10.20;2.00;;;24.90;99.90;;;;;;4898601;29;20036;-68
2023/09/20 12:46:18;;;;;;;3.17;1.55;;;24.90;99.90;;;;;;4885936;29;20115;-67
2023/09/20 12:48:50;;;;;;;1.70;1.20;;;24.90;99.90;;;;;;4895399;29;20234;-68
2023/09/20 12:51:17;;;;;;;2.75;1.15;;;25.10;99.90;;;;;;4892974;29;20051;-68
2023/09/20 12:53:44;;;;;;;2.55;1.00;;;25.20;99.90;;;;;;4897587;29;20060;-67
2023/09/20 12:56:13;;;;;;;1.50;1.10;;;25.20;99.90;;;;;;4899309;29;20045;-68
2023/09/20 12:58:45;;;;;;;1.58;1.15;;;25.20;99.90;;;;;;4899431;29;20123;-68
2023/09/20 13:01:11;;;;;;;1.55;1.20;;;25.20;99.90;;;;;;4891236;29;20519;-67
2023/09/20 13:03:43;;;;;;;6.20;5.40;;;25.30;99.90;;;;;;4881817;29;20040;-67
2023/09/20 13:06:17;;;;;;;2.90;1.20;;;25.30;99.90;;;;;;4896330;29;20631;-68
2023/09/20 13:08:49;;;;;;;2.42;1.10;;;25.40;99.90;;;;;;4896087;29;20048;-67
2023/09/20 13:11:22;;;;;;;1.08;0.90;;;25.40;99.90;;;;;;4903000;29;20119;-68
2023/09/20 13:13:53;;;;;;;3.35;1.38;;;25.50;99.90;;;;;;4905974;29;20045;-68
2023/09/20 13:16:25;;;;;;;3.22;1.10;;;25.50;99.90;;;;;;4900498;29;20040;-67
2023/09/20 13:18:58;;;;;;;3.63;1.60;;;25.50;99.90;;;;;;4890786;29;20513;-67
2023/09/20 13:21:30;;;;;;;2.63;1.38;;;25.60;99.90;;;;;;4886506;29;20040;-68
2023/09/20 13:24:02;;;;;;;2.20;1.48;;;25.50;99.90;;;;;;4906621;29;20063;-66
2023/09/20 13:26:35;;;;;;;1.85;1.30;;;25.40;99.90;;;;;;4901150;29;20043;-67
2023/09/20 13:29:07;;;;;;;1.77;1.17;;;25.40;99.90;;;;;;4900242;29;20131;-67
2023/09/20 13:31:40;;;;;;;1.67;1.30;;;25.40;99.90;;;;;;4895979;29;20049;-65
2023/09/20 13:34:15;;;;;;;1.45;1.23;;;25.50;99.90;;;;;;4882904;29;20111;-67
2023/09/20 13:36:47;;;;;;;3.97;1.27;;;25.50;99.90;;;;;;4896177;29;20080;-67
2023/09/20 13:39:16;;;;;;;3.22;1.30;;;25.60;99.90;;;;;;4899436;29;20033;-67
2023/09/20 13:41:53;;;;;;;2.80;1.30;;;25.70;99.90;;;;;;4892170;29;20517;-67
2023/09/20 13:44:20;;;;;;;1.48;1.08;;;25.70;99.90;;;;;;4885152;29;20061;-67
2023/09/20 13:46:52;;;;;;;2.90;1.63;;;25.80;99.90;;;;;;4889520;29;20052;-67
2023/09/20 13:49:24;;;;;;;1.47;1.00;;;25.90;99.90;;;;;;4892424;29;20044;-67
2023/09/20 13:51:51;;;;;;;1.98;1.20;;;25.90;99.90;;;;;;4882352;29;20518;-67
2023/09/20 13:54:23;;;;;;;1.43;1.23;;;26.10;99.90;;;;;;4886562;29;20135;-67
2023/09/20 13:56:55;;;;;;;2.58;1.40;;;26.10;99.90;;;;;;4891356;29;20305;-67